createdAt,value
2023-06-29T00:00:59.433Z,3.90
2023-06-29T00:03:29.551Z,3.40
2023-06-29T00:06:07.736Z,3.30
2023-06-29T00:08:39.042Z,3.80
2023-06-29T00:11:09.929Z,3.40
2023-06-29T00:13:38.920Z,3.20
2023-06-29T00:16:10.505Z,3.10
2023-06-29T00:18:39.589Z,3.50
2023-06-29T00:21:08.787Z,3.60
2023-06-29T00:23:38.035Z,3.50
2023-06-29T00:26:10.031Z,3.60
2023-06-29T00:28:38.961Z,3.40
2023-06-29T00:31:08.245Z,3.10
2023-06-29T00:33:44.366Z,3.30
2023-06-29T00:36:13.569Z,3.60
2023-06-29T00:38:42.613Z,3.20
2023-06-29T00:41:11.856Z,3.60
2023-06-29T00:43:52.862Z,3.20
2023-06-29T00:46:23.994Z,3.50
2023-06-29T00:48:53.203Z,3.20
2023-06-29T00:51:22.723Z,3.30
2023-06-29T00:53:52.077Z,3.00
2023-06-29T00:56:21.091Z,5.20
2023-06-29T00:58:53.785Z,4.30
2023-06-29T01:01:28.606Z,3.50
2023-06-29T01:04:18.944Z,3.20
2023-06-29T01:07:09.578Z,3.00
2023-06-29T01:09:51.230Z,3.40
2023-06-29T01:12:27.176Z,3.40
2023-06-29T01:15:01.589Z,3.20
2023-06-29T01:17:37.052Z,3.10
2023-06-29T01:20:27.330Z,3.40
2023-06-29T01:23:54.247Z,3.30
2023-06-29T01:26:49.626Z,3.80
2023-06-29T01:29:41.763Z,3.40
2023-06-29T01:32:12.851Z,3.00
2023-06-29T01:34:42.733Z,3.60
2023-06-29T01:37:27.267Z,3.60
2023-06-29T01:40:25.462Z,3.60
2023-06-29T01:42:58.956Z,3.80
2023-06-29T01:45:31.320Z,3.60
2023-06-29T01:48:02.984Z,3.20
2023-06-29T01:50:38.610Z,3.90
2023-06-29T01:53:17.645Z,3.50
2023-06-29T01:55:55.683Z,4.20
2023-06-29T01:58:24.844Z,3.90
2023-06-29T02:00:54.377Z,4.10
2023-06-29T02:03:26.182Z,4.30
2023-06-29T02:05:55.565Z,3.70
2023-06-29T02:08:35.560Z,3.70
2023-06-29T02:11:31.354Z,3.60
2023-06-29T02:14:11.103Z,3.80
2023-06-29T02:16:45.840Z,3.70
2023-06-29T02:19:20.440Z,3.60
2023-06-29T02:22:05.228Z,4.00
2023-06-29T02:24:38.336Z,5.10
2023-06-29T02:27:07.677Z,3.50
2023-06-29T02:29:36.901Z,3.10
2023-06-29T02:32:06.362Z,4.00
2023-06-29T02:34:35.238Z,4.00
2023-06-29T02:37:04.185Z,3.70
2023-06-29T02:39:34.180Z,4.20
2023-06-29T02:42:03.228Z,4.10
2023-06-29T02:44:32.537Z,3.80
2023-06-29T02:47:01.378Z,3.50
2023-06-29T02:49:33.449Z,3.50
2023-06-29T02:52:02.547Z,3.60
2023-06-29T02:54:33.974Z,3.80
2023-06-29T02:57:03.135Z,2.90
2023-06-29T02:59:32.124Z,3.20
2023-06-29T03:02:01.033Z,3.30
2023-06-29T03:04:30.219Z,3.30
2023-06-29T03:06:59.290Z,3.40
2023-06-29T03:09:28.128Z,3.40
2023-06-29T03:11:57.147Z,3.50
2023-06-29T03:14:26.359Z,3.40
2023-06-29T03:16:55.416Z,3.70
2023-06-29T03:19:26.685Z,3.70
2023-06-29T03:21:56.033Z,3.50
2023-06-29T03:24:25.106Z,3.30
2023-06-29T03:26:54.314Z,3.50
2023-06-29T03:29:26.565Z,3.40
2023-06-29T03:31:55.733Z,3.30
2023-06-29T03:34:24.846Z,3.60
2023-06-29T03:36:55.613Z,3.70
2023-06-29T03:39:24.566Z,3.40
2023-06-29T03:41:53.576Z,3.60
2023-06-29T03:44:22.862Z,3.50
2023-06-29T03:46:51.716Z,3.20
2023-06-29T03:49:27.518Z,3.90
2023-06-29T03:52:05.485Z,3.50
2023-06-29T03:54:35.331Z,3.60
2023-06-29T03:57:05.333Z,3.50
2023-06-29T03:59:34.801Z,3.60
2023-06-29T04:02:06.395Z,3.20
2023-06-29T04:04:35.674Z,4.20
2023-06-29T04:07:04.632Z,3.60
2023-06-29T04:09:34.671Z,4.10
2023-06-29T04:12:03.508Z,4.00
2023-06-29T04:14:32.566Z,3.30
2023-06-29T04:17:01.841Z,3.70
2023-06-29T04:19:31.238Z,3.70
2023-06-29T04:22:00.450Z,3.60
2023-06-29T04:24:29.475Z,3.90
2023-06-29T04:27:01.890Z,3.40
2023-06-29T04:29:30.826Z,2.90
2023-06-29T04:32:00.254Z,3.90
2023-06-29T04:34:31.735Z,3.40
2023-06-29T04:37:04.167Z,3.30
2023-06-29T04:39:33.160Z,3.70
2023-06-29T04:42:07.179Z,3.50
2023-06-29T04:44:39.004Z,4.50
2023-06-29T04:47:08.853Z,3.50
2023-06-29T04:49:42.070Z,3.80
2023-06-29T04:52:14.352Z,3.70
2023-06-29T04:54:44.222Z,4.10
2023-06-29T04:57:14.710Z,4.00
2023-06-29T04:59:47.065Z,3.60
2023-06-29T05:02:17.755Z,3.70
2023-06-29T05:04:52.208Z,3.50
2023-06-29T05:07:21.361Z,3.40
2023-06-29T05:09:50.461Z,3.40
2023-06-29T05:15:02.456Z,3.40
2023-06-29T05:17:33.665Z,3.80
2023-06-29T05:20:05.824Z,4.00
2023-06-29T05:22:37.861Z,4.10
2023-06-29T05:25:07.275Z,4.20
2023-06-29T05:27:36.234Z,3.60
2023-06-29T05:30:18.149Z,3.60
2023-06-29T05:32:47.216Z,3.70
2023-06-29T05:35:16.231Z,3.50
2023-06-29T05:37:50.378Z,3.60
2023-06-29T05:40:22.737Z,4.00
2023-06-29T05:42:51.748Z,3.60
2023-06-29T05:45:20.986Z,3.30
2023-06-29T05:47:49.994Z,4.00
2023-06-29T05:50:19.230Z,3.60
2023-06-29T05:52:50.960Z,3.10
2023-06-29T05:55:23.256Z,3.30
2023-06-29T05:57:54.314Z,3.60
2023-06-29T06:00:27.851Z,3.70
2023-06-29T06:02:56.820Z,3.20
2023-06-29T06:05:30.025Z,3.10
2023-06-29T06:07:59.253Z,3.10
2023-06-29T06:10:28.251Z,3.70
2023-06-29T06:13:04.309Z,3.40
2023-06-29T06:16:12.869Z,3.80
2023-06-29T06:18:50.533Z,3.60
2023-06-29T06:21:34.961Z,3.60
2023-06-29T06:24:17.846Z,3.30
2023-06-29T06:27:03.435Z,3.30
2023-06-29T06:29:47.121Z,3.40
2023-06-29T06:32:21.340Z,3.00
2023-06-29T06:34:53.657Z,3.30
2023-06-29T06:37:31.050Z,3.00
2023-06-29T06:40:00.231Z,3.60
2023-06-29T06:42:31.859Z,3.30
2023-06-29T06:45:02.886Z,3.50
2023-06-29T06:47:36.932Z,3.00
2023-06-29T06:50:09.918Z,3.30
2023-06-29T06:52:40.628Z,3.50
2023-06-29T06:55:10.424Z,2.90
2023-06-29T06:57:39.414Z,3.60
2023-06-29T07:00:12.857Z,3.50
2023-06-29T07:02:42.311Z,3.20
2023-06-29T07:05:12.548Z,3.60
2023-06-29T07:07:41.802Z,3.70
2023-06-29T07:10:12.036Z,3.30
2023-06-29T07:12:45.212Z,3.70
2023-06-29T07:15:14.171Z,3.80
2023-06-29T07:17:43.469Z,3.80
2023-06-29T07:25:17.546Z,3.30
2023-06-29T07:27:50.257Z,3.30
2023-06-29T07:30:19.388Z,3.70
2023-06-29T07:32:48.545Z,4.00
2023-06-29T07:35:17.886Z,3.30
2023-06-29T07:37:47.223Z,3.60
2023-06-29T07:40:16.298Z,3.70
2023-06-29T07:42:45.325Z,3.60
2023-06-29T07:45:15.763Z,3.60
2023-06-29T07:47:45.367Z,3.50
2023-06-29T07:50:14.369Z,3.40
2023-06-29T07:52:43.623Z,3.00
2023-06-29T07:55:18.328Z,3.50
2023-06-29T08:03:06.765Z,3.70
2023-06-29T08:08:07.514Z,3.60
2023-06-29T08:10:36.767Z,3.50
2023-06-29T08:13:06.265Z,3.10
2023-06-29T08:15:37.941Z,3.70
2023-06-29T08:18:07.183Z,3.90
2023-06-29T08:20:36.098Z,3.70
2023-06-29T08:23:05.145Z,3.60
2023-06-29T08:25:34.686Z,3.50
2023-06-29T08:28:03.830Z,3.30
2023-06-29T08:30:35.666Z,3.40
2023-06-29T08:33:05.151Z,3.70
2023-06-29T08:35:37.489Z,3.30
2023-06-29T08:38:06.702Z,3.20
2023-06-29T08:40:38.465Z,3.60
2023-06-29T08:43:07.576Z,3.40
2023-06-29T08:45:36.748Z,3.60
2023-06-29T08:48:06.862Z,4.00
2023-06-29T08:50:39.888Z,4.10
2023-06-29T08:53:09.905Z,3.70
2023-06-29T08:55:41.637Z,3.20
2023-06-29T08:58:13.669Z,3.40
2023-06-29T09:00:45.716Z,3.40
2023-06-29T09:03:16.863Z,3.90
2023-06-29T09:05:47.878Z,3.90
2023-06-29T09:08:17.072Z,3.70
2023-06-29T09:10:48.884Z,3.60
2023-06-29T09:13:19.721Z,3.70
2023-06-29T09:15:51.329Z,4.20
2023-06-29T09:18:29.929Z,3.40
2023-06-29T09:21:08.289Z,3.60
2023-06-29T09:23:37.390Z,3.70
2023-06-29T09:26:07.753Z,3.70
2023-06-29T09:29:03.232Z,3.40
2023-06-29T09:32:06.009Z,3.30
2023-06-29T09:34:53.216Z,3.60
2023-06-29T09:37:45.752Z,3.70
2023-06-29T09:40:15.413Z,4.00
2023-06-29T09:42:44.971Z,4.20
2023-06-29T09:45:14.491Z,3.70
2023-06-29T09:50:31.937Z,3.50
2023-06-29T09:53:11.012Z,3.70
2023-06-29T09:55:47.883Z,3.90
2023-06-29T09:58:20.279Z,4.30
2023-06-29T10:00:55.700Z,3.80
2023-06-29T10:03:25.383Z,4.30
2023-06-29T10:05:59.874Z,3.90
2023-06-29T10:08:31.520Z,3.40
2023-06-29T10:11:05.986Z,4.00
2023-06-29T10:13:46.301Z,3.80
2023-06-29T10:16:22.822Z,4.30
2023-06-29T10:19:07.165Z,3.90
2023-06-29T10:21:39.008Z,3.70
2023-06-29T10:24:09.489Z,3.80
2023-06-29T10:26:45.761Z,4.00
2023-06-29T10:29:19.163Z,3.60
2023-06-29T10:31:51.247Z,4.00
2023-06-29T10:34:21.947Z,3.70
2023-06-29T10:36:55.174Z,4.00
2023-06-29T10:39:42.741Z,4.40
2023-06-29T10:42:50.543Z,4.30
2023-06-29T10:45:19.832Z,3.60
2023-06-29T10:48:05.627Z,3.80
2023-06-29T10:50:53.784Z,4.00
2023-06-29T10:53:24.287Z,3.60
2023-06-29T10:56:00.711Z,4.30
2023-06-29T10:58:39.785Z,4.00
2023-06-29T11:01:11.520Z,3.70
2023-06-29T11:03:44.743Z,3.70
2023-06-29T11:09:16.898Z,4.00
2023-06-29T11:11:54.666Z,4.30
2023-06-29T11:14:23.700Z,3.40
2023-06-29T11:16:56.982Z,3.90
2023-06-29T11:19:30.333Z,3.80
2023-06-29T11:22:02.362Z,3.70
2023-06-29T11:24:32.621Z,4.20
2023-06-29T11:27:01.644Z,4.00
2023-06-29T11:29:32.617Z,3.90
2023-06-29T11:32:08.215Z,3.80
2023-06-29T11:34:37.472Z,4.60
2023-06-29T11:37:15.391Z,4.40
2023-06-29T11:39:53.402Z,4.40
2023-06-29T11:42:24.550Z,4.30
2023-06-29T11:45:09.493Z,4.10
2023-06-29T11:47:42.008Z,4.70
2023-06-29T11:50:15.108Z,4.20
2023-06-29T11:52:49.408Z,4.20
2023-06-29T11:55:20.693Z,4.10
2023-06-29T11:57:55.973Z,4.50
2023-06-29T12:00:28.627Z,4.50
2023-06-29T12:02:58.537Z,4.50
2023-06-29T12:05:33.472Z,4.30
2023-06-29T12:08:13.759Z,4.20
2023-06-29T12:10:42.802Z,4.20
2023-06-29T12:13:12.895Z,4.50
2023-06-29T12:18:18.797Z,4.80
2023-06-29T12:20:50.234Z,4.60
2023-06-29T12:23:19.450Z,4.50
2023-06-29T12:25:52.780Z,4.80
2023-06-29T12:28:22.482Z,4.80
2023-06-29T12:30:54.516Z,4.00
2023-06-29T12:33:23.580Z,4.50
2023-06-29T12:35:52.876Z,4.30
2023-06-29T12:38:21.765Z,4.60
2023-06-29T12:40:52.504Z,4.50
2023-06-29T12:43:21.745Z,4.40
2023-06-29T12:45:50.845Z,5.80
2023-06-29T12:48:21.616Z,4.30
2023-06-29T12:50:50.867Z,4.50
2023-06-29T12:53:20.029Z,4.80
2023-06-29T12:55:49.609Z,4.50
2023-06-29T12:58:18.604Z,4.60
2023-06-29T13:00:47.654Z,4.20
2023-06-29T13:03:17.171Z,4.80
2023-06-29T13:05:48.526Z,4.60
2023-06-29T13:08:20.489Z,4.30
2023-06-29T13:10:49.667Z,4.30
2023-06-29T13:13:18.637Z,4.80
2023-06-29T13:15:50.715Z,4.60
2023-06-29T13:18:19.553Z,4.90
2023-06-29T13:20:48.563Z,4.20
2023-06-29T13:23:17.706Z,4.70
2023-06-29T13:25:47.184Z,4.50
2023-06-29T13:28:18.960Z,5.00
2023-06-29T13:30:48.318Z,4.90
2023-06-29T13:33:17.675Z,4.20
2023-06-29T13:35:49.538Z,4.40
2023-06-29T13:38:18.504Z,4.90
2023-06-29T13:41:19.570Z,4.90
2023-06-29T13:43:51.596Z,4.70
2023-06-29T13:46:33.313Z,4.40
2023-06-29T13:49:32.031Z,4.60
2023-06-29T13:52:39.052Z,5.00
2023-06-29T13:55:21.820Z,4.50
2023-06-29T13:57:51.693Z,5.20
2023-06-29T14:00:31.628Z,5.40
2023-06-29T14:03:06.968Z,5.30
2023-06-29T14:05:39.502Z,5.00
2023-06-29T14:08:11.366Z,4.80
2023-06-29T14:10:47.877Z,4.60
2023-06-29T14:13:28.053Z,4.70
2023-06-29T14:16:00.299Z,5.00
2023-06-29T14:18:32.822Z,4.80
2023-06-29T14:21:05.490Z,4.90
2023-06-29T14:23:40.601Z,4.90
2023-06-29T14:26:11.328Z,5.40
2023-06-29T14:28:46.791Z,4.90
2023-06-29T14:31:19.336Z,5.10
2023-06-29T14:34:02.023Z,4.80
2023-06-29T14:36:31.210Z,4.60
2023-06-29T14:39:10.111Z,4.60
2023-06-29T14:41:43.444Z,4.50
2023-06-29T14:44:15.679Z,5.30
2023-06-29T14:46:47.519Z,5.00
2023-06-29T14:49:33.397Z,5.10
2023-06-29T14:52:11.073Z,4.90
2023-06-29T14:54:42.828Z,4.80
2023-06-29T14:57:17.211Z,4.90
2023-06-29T14:59:53.703Z,4.80
2023-06-29T15:02:26.760Z,5.70
2023-06-29T15:05:02.210Z,5.00
2023-06-29T15:07:43.429Z,5.10
2023-06-29T15:10:14.331Z,5.20
2023-06-29T15:12:43.378Z,4.90
2023-06-29T15:15:14.231Z,5.30
2023-06-29T15:17:46.017Z,4.90
2023-06-29T15:20:18.992Z,4.70
2023-06-29T15:22:48.204Z,5.00
2023-06-29T15:25:17.436Z,5.40
2023-06-29T15:27:47.057Z,4.80
2023-06-29T15:30:16.365Z,5.10
2023-06-29T15:32:45.293Z,4.90
2023-06-29T15:35:14.315Z,6.80
2023-06-29T15:37:43.359Z,5.90
2023-06-29T15:40:12.838Z,5.00
2023-06-29T15:42:41.970Z,5.20
2023-06-29T15:45:22.745Z,5.00
2023-06-29T15:47:51.862Z,4.60
2023-06-29T15:50:20.857Z,5.10
2023-06-29T15:52:50.189Z,4.90
2023-06-29T15:55:19.037Z,4.80
2023-06-29T15:57:48.176Z,4.80
2023-06-29T16:00:17.752Z,4.40
2023-06-29T16:02:49.036Z,5.00
2023-06-29T16:05:18.394Z,4.70
2023-06-29T16:07:47.433Z,5.10
2023-06-29T16:10:17.125Z,4.50
2023-06-29T16:12:47.119Z,4.70
2023-06-29T16:15:16.290Z,5.00
2023-06-29T16:17:46.482Z,5.50
2023-06-29T16:20:15.700Z,4.70
2023-06-29T16:22:44.858Z,5.20
2023-06-29T16:25:14.016Z,5.30
2023-06-29T16:27:42.866Z,4.90
2023-06-29T16:30:12.230Z,4.80
2023-06-29T16:32:43.685Z,4.80
2023-06-29T16:35:12.778Z,4.70
2023-06-29T16:37:43.123Z,4.70
2023-06-29T16:40:13.101Z,4.60
2023-06-29T16:42:42.068Z,4.80
2023-06-29T16:45:14.649Z,4.80
2023-06-29T16:47:43.604Z,4.90
2023-06-29T16:50:12.815Z,4.90
2023-06-29T16:52:41.982Z,4.50
2023-06-29T16:55:11.545Z,4.50
2023-06-29T16:57:40.582Z,4.40
2023-06-29T17:00:10.893Z,4.20
2023-06-29T17:02:40.478Z,4.40
2023-06-29T17:05:10.815Z,4.70
2023-06-29T17:07:42.611Z,5.10
2023-06-29T17:10:12.150Z,4.60
2023-06-29T17:12:41.420Z,5.20
2023-06-29T17:15:11.411Z,4.60
2023-06-29T17:17:40.415Z,4.70
2023-06-29T17:20:10.397Z,4.80
2023-06-29T17:22:42.261Z,5.30
2023-06-29T17:25:11.649Z,4.30
2023-06-29T17:27:40.591Z,4.70
2023-06-29T17:30:10.730Z,5.20
2023-06-29T17:32:39.771Z,4.20
2023-06-29T17:35:12.387Z,4.80
2023-06-29T17:37:44.133Z,3.90
2023-06-29T17:40:13.429Z,4.60
2023-06-29T17:42:42.317Z,4.50
2023-06-29T17:45:16.965Z,5.10
2023-06-29T17:47:49.250Z,4.50
2023-06-29T17:50:18.491Z,4.30
2023-06-29T17:52:50.557Z,4.80
2023-06-29T17:55:22.601Z,4.20
2023-06-29T17:57:54.698Z,4.40
2023-06-29T18:00:24.116Z,4.50
2023-06-29T18:02:53.640Z,4.80
2023-06-29T18:05:23.013Z,4.50
2023-06-29T18:07:52.002Z,5.20
2023-06-29T18:10:21.095Z,4.50
2023-06-29T18:12:49.916Z,4.50
2023-06-29T18:15:21.480Z,5.20
2023-06-29T18:17:50.380Z,5.30
2023-06-29T18:20:19.310Z,4.90
2023-06-29T18:22:48.365Z,4.30
2023-06-29T18:25:17.693Z,4.10
2023-06-29T18:27:46.661Z,5.00
2023-06-29T18:30:16.475Z,5.30
2023-06-29T18:32:45.489Z,5.30
2023-06-29T18:35:16.412Z,4.70
2023-06-29T18:37:47.384Z,5.20
2023-06-29T18:40:16.995Z,5.00
2023-06-29T18:42:45.974Z,4.50
2023-06-29T18:45:15.126Z,4.40
2023-06-29T18:47:44.273Z,4.90
2023-06-29T18:50:13.714Z,4.80
2023-06-29T18:52:42.772Z,4.50
2023-06-29T18:55:12.296Z,4.10
2023-06-29T18:57:41.374Z,4.70
2023-06-29T19:00:11.268Z,5.30
2023-06-29T19:02:44.158Z,4.80
2023-06-29T19:05:13.567Z,4.50
2023-06-29T19:07:54.588Z,4.30
2023-06-29T19:10:26.284Z,4.80
2023-06-29T19:12:55.490Z,4.50
2023-06-29T19:15:24.436Z,3.80
2023-06-29T19:17:53.488Z,4.50
2023-06-29T19:20:24.938Z,4.50
2023-06-29T19:22:54.806Z,4.60
2023-06-29T19:25:23.784Z,4.60
2023-06-29T19:41:20.827Z,4.80
2023-06-29T19:43:49.608Z,4.20
2023-06-29T19:46:19.446Z,4.70
2023-06-29T19:48:49.168Z,4.30
2023-06-29T19:51:18.349Z,4.60
2023-06-29T19:53:47.527Z,5.20
2023-06-29T19:56:16.144Z,4.80
2023-06-29T19:58:44.779Z,4.10
2023-06-29T20:01:13.761Z,4.60
2023-06-29T20:03:42.703Z,4.40
2023-06-29T20:06:12.276Z,3.90
2023-06-29T20:08:42.672Z,3.60
2023-06-29T20:11:14.233Z,4.50
2023-06-29T20:13:43.385Z,4.30
2023-06-29T20:16:12.240Z,4.20
2023-06-29T20:18:41.028Z,4.20
2023-06-29T20:21:15.274Z,4.50
2023-06-29T20:23:43.806Z,3.80
2023-06-29T20:26:16.145Z,4.20
2023-06-29T20:28:50.895Z,3.80
2023-06-29T20:31:30.916Z,4.00
2023-06-29T20:34:04.387Z,4.10
2023-06-29T20:36:37.227Z,3.70
2023-06-29T20:39:06.698Z,4.10
2023-06-29T20:41:36.556Z,4.40
2023-06-29T20:44:15.513Z,4.20
2023-06-29T20:46:58.649Z,4.40
2023-06-29T20:49:35.200Z,4.10
2023-06-29T20:52:07.559Z,3.80
2023-06-29T20:54:36.975Z,3.80
2023-06-29T20:57:08.495Z,4.50
2023-06-29T20:59:43.997Z,4.30
2023-06-29T21:02:21.180Z,4.00
2023-06-29T21:04:55.477Z,4.40
2023-06-29T21:07:28.673Z,4.20
2023-06-29T21:09:57.595Z,3.80
2023-06-29T21:12:33.551Z,4.10
2023-06-29T21:15:10.899Z,3.60
2023-06-29T21:17:48.020Z,3.50
2023-06-29T21:20:16.858Z,3.40
2023-06-29T21:22:48.951Z,3.50
2023-06-29T21:25:18.562Z,3.30
2023-06-29T21:27:47.552Z,3.10
2023-06-29T21:32:40.115Z,3.40
2023-06-29T21:35:10.608Z,3.20
2023-06-29T21:37:46.957Z,3.70
2023-06-29T21:40:16.568Z,3.40
2023-06-29T21:42:47.372Z,3.30
2023-06-29T21:45:17.180Z,3.30
2023-06-29T21:48:04.562Z,3.20
2023-06-29T21:50:35.773Z,3.70
2023-06-29T21:53:06.165Z,3.30
2023-06-29T21:55:35.862Z,3.20
2023-06-29T21:58:05.052Z,3.50
2023-06-29T22:00:39.113Z,3.40
2023-06-29T22:03:08.675Z,3.60
2023-06-29T22:05:37.973Z,3.00
2023-06-29T22:08:07.595Z,3.10
2023-06-29T22:11:25.652Z,3.30
2023-06-29T22:14:02.088Z,3.40
2023-06-29T22:18:56.328Z,3.90
2023-06-29T22:21:29.176Z,4.10
2023-06-29T22:24:13.280Z,3.90
2023-06-29T22:26:45.549Z,4.20
2023-06-29T22:29:14.904Z,3.70
2023-06-29T22:31:45.624Z,3.70
2023-06-29T22:34:18.845Z,3.80
2023-06-29T22:36:51.460Z,3.70
2023-06-29T22:39:20.877Z,3.70
2023-06-29T22:41:49.841Z,3.40
2023-06-29T22:44:19.233Z,3.90
2023-06-29T22:46:48.949Z,3.80
2023-06-29T22:49:18.994Z,3.90
2023-06-29T22:51:48.087Z,3.70
2023-06-29T22:54:17.162Z,3.90
2023-06-29T22:56:46.528Z,3.10
2023-06-29T22:59:15.738Z,3.10
2023-06-29T23:01:47.684Z,3.20
2023-06-29T23:04:17.449Z,3.40
2023-06-29T23:06:59.844Z,3.40
2023-06-29T23:09:29.666Z,3.20
2023-06-29T23:12:06.134Z,3.40
2023-06-29T23:14:35.850Z,3.50
2023-06-29T23:17:12.191Z,3.50
2023-06-29T23:19:46.845Z,3.70
2023-06-29T23:22:16.345Z,3.60
2023-06-29T23:24:48.337Z,4.00
2023-06-29T23:27:19.133Z,3.30
2023-06-29T23:29:49.003Z,3.30
2023-06-29T23:32:18.585Z,2.90
2023-06-29T23:34:48.005Z,3.60
2023-06-29T23:37:18.777Z,3.10
2023-06-29T23:39:51.186Z,3.10
2023-06-29T23:42:30.908Z,3.10
2023-06-29T23:45:03.213Z,3.00
2023-06-29T23:47:32.977Z,3.20
2023-06-29T23:50:02.152Z,2.80
2023-06-29T23:52:31.997Z,3.10
2023-06-29T23:55:05.285Z,3.10
2023-06-29T23:57:37.488Z,3.10
